sensor_id;sensor_type;location;lat;lon;timestamp;pressure;altitude;pressure_sealevel;temperature;humidity
72110;BME280;59983;52.010;5.420;2022-11-15T00:00:51;100904.19;;;8.16;88.13
72110;BME280;59983;52.010;5.420;2022-11-15T00:03:20;100901.47;;;8.16;88.45
72110;BME280;59983;52.010;5.420;2022-11-15T00:05:48;100904.34;;;8.11;88.72
72110;BME280;59983;52.010;5.420;2022-11-15T00:08:15;100901.03;;;8.14;88.87
72110;BME280;59983;52.010;5.420;2022-11-15T00:10:42;100898.00;;;8.15;89.00
72110;BME280;59983;52.010;5.420;2022-11-15T00:13:12;100894.94;;;8.17;89.04
72110;BME280;59983;52.010;5.420;2022-11-15T00:15:40;100894.16;;;8.16;89.07
72110;BME280;59983;52.010;5.420;2022-11-15T00:18:14;100894.28;;;8.20;89.37
72110;BME280;59983;52.010;5.420;2022-11-15T00:20:40;100893.97;;;8.21;89.40
72110;BME280;59983;52.010;5.420;2022-11-15T00:23:07;100892.06;;;8.22;89.40
72110;BME280;59983;52.010;5.420;2022-11-15T00:25:33;100889.50;;;8.26;89.48
72110;BME280;59983;52.010;5.420;2022-11-15T00:28:00;100890.28;;;8.26;89.56
72110;BME280;59983;52.010;5.420;2022-11-15T00:30:27;100888.72;;;8.25;89.80
72110;BME280;59983;52.010;5.420;2022-11-15T00:32:54;100882.19;;;8.26;89.78
72110;BME280;59983;52.010;5.420;2022-11-15T00:35:21;100891.06;;;8.27;89.72
72110;BME280;59983;52.010;5.420;2022-11-15T00:37:48;100887.59;;;8.26;90.06
72110;BME280;59983;52.010;5.420;2022-11-15T00:40:15;100881.84;;;8.28;90.13
72110;BME280;59983;52.010;5.420;2022-11-15T00:42:41;100882.31;;;8.30;90.54
72110;BME280;59983;52.010;5.420;2022-11-15T00:45:08;100881.22;;;8.31;90.48
72110;BME280;59983;52.010;5.420;2022-11-15T00:47:35;100889.31;;;8.31;90.48
72110;BME280;59983;52.010;5.420;2022-11-15T00:50:02;100885.78;;;8.30;90.83
72110;BME280;59983;52.010;5.420;2022-11-15T00:52:29;100881.50;;;8.38;90.79
72110;BME280;59983;52.010;5.420;2022-11-15T00:54:55;100874.50;;;8.37;90.71
72110;BME280;59983;52.010;5.420;2022-11-15T00:57:22;100872.59;;;8.37;91.00
72110;BME280;59983;52.010;5.420;2022-11-15T00:59:48;100879.06;;;8.45;91.17
72110;BME280;59983;52.010;5.420;2022-11-15T01:02:14;100874.44;;;8.45;91.17
72110;BME280;59983;52.010;5.420;2022-11-15T01:04:41;100855.53;;;8.45;91.24
72110;BME280;59983;52.010;5.420;2022-11-15T01:07:07;100854.22;;;8.51;91.01
72110;BME280;59983;52.010;5.420;2022-11-15T01:09:34;100853.88;;;8.53;91.06
72110;BME280;59983;52.010;5.420;2022-11-15T01:12:00;100849.72;;;8.56;91.11
72110;BME280;59983;52.010;5.420;2022-11-15T01:14:27;100848.28;;;8.58;91.27
72110;BME280;59983;52.010;5.420;2022-11-15T01:16:53;100843.00;;;8.62;91.40
72110;BME280;59983;52.010;5.420;2022-11-15T01:19:20;100845.03;;;8.65;91.16
72110;BME280;59983;52.010;5.420;2022-11-15T01:21:50;100844.22;;;8.64;91.24
72110;BME280;59983;52.010;5.420;2022-11-15T01:24:17;100837.59;;;8.62;91.29
72110;BME280;59983;52.010;5.420;2022-11-15T01:26:43;100834.22;;;8.65;91.63
72110;BME280;59983;52.010;5.420;2022-11-15T01:29:10;100844.38;;;8.68;91.79
72110;BME280;59983;52.010;5.420;2022-11-15T01:31:36;100834.00;;;8.70;91.56
72110;BME280;59983;52.010;5.420;2022-11-15T01:34:03;100839.53;;;8.73;91.70
72110;BME280;59983;52.010;5.420;2022-11-15T01:36:29;100838.22;;;8.79;91.68
72110;BME280;59983;52.010;5.420;2022-11-15T01:38:57;100836.63;;;8.78;91.76
72110;BME280;59983;52.010;5.420;2022-11-15T01:41:28;100832.13;;;8.83;91.63
72110;BME280;59983;52.010;5.420;2022-11-15T01:43:58;100828.78;;;8.86;91.63
72110;BME280;59983;52.010;5.420;2022-11-15T01:46:45;100823.16;;;8.91;91.78
72110;BME280;59983;52.010;5.420;2022-11-15T01:49:19;100817.44;;;8.92;91.65
72110;BME280;59983;52.010;5.420;2022-11-15T01:51:47;100824.72;;;8.92;91.79
72110;BME280;59983;52.010;5.420;2022-11-15T01:54:16;100821.22;;;8.91;91.76
72110;BME280;59983;52.010;5.420;2022-11-15T01:56:51;100820.13;;;8.92;91.85
72110;BME280;59983;52.010;5.420;2022-11-15T01:59:19;100823.06;;;8.99;91.91
72110;BME280;59983;52.010;5.420;2022-11-15T02:01:46;100816.84;;;8.99;91.99
72110;BME280;59983;52.010;5.420;2022-11-15T02:04:16;100818.44;;;9.00;92.04
72110;BME280;59983;52.010;5.420;2022-11-15T02:06:44;100818.91;;;9.02;92.08
72110;BME280;59983;52.010;5.420;2022-11-15T02:09:11;100812.03;;;9.04;91.83
72110;BME280;59983;52.010;5.420;2022-11-15T02:11:38;100809.09;;;9.09;91.98
72110;BME280;59983;52.010;5.420;2022-11-15T02:14:06;100808.31;;;9.09;91.99
72110;BME280;59983;52.010;5.420;2022-11-15T02:28:06;100783.44;;;9.28;92.16
72110;BME280;59983;52.010;5.420;2022-11-15T02:30:49;100780.50;;;9.33;91.95
72110;BME280;59983;52.010;5.420;2022-11-15T02:36:18;100773.75;;;9.39;91.89
72110;BME280;59983;52.010;5.420;2022-11-15T02:39:14;100765.72;;;9.43;92.22
72110;BME280;59983;52.010;5.420;2022-11-15T02:41:50;100768.88;;;9.45;92.02
72110;BME280;59983;52.010;5.420;2022-11-15T02:46:55;100760.53;;;9.50;92.35
72110;BME280;59983;52.010;5.420;2022-11-15T02:49:50;100752.06;;;9.51;92.74
72110;BME280;59983;52.010;5.420;2022-11-15T02:52:20;100746.09;;;9.58;92.76
72110;BME280;59983;52.010;5.420;2022-11-15T02:54:55;100742.69;;;9.61;92.31
72110;BME280;59983;52.010;5.420;2022-11-15T02:57:48;100744.75;;;9.64;92.53
72110;BME280;59983;52.010;5.420;2022-11-15T03:00:19;100743.25;;;9.67;92.84
72110;BME280;59983;52.010;5.420;2022-11-15T03:05:41;100736.16;;;9.74;92.68
72110;BME280;59983;52.010;5.420;2022-11-15T03:08:19;100735.81;;;9.76;93.20
72110;BME280;59983;52.010;5.420;2022-11-15T03:13:33;100728.13;;;9.78;93.28
72110;BME280;59983;52.010;5.420;2022-11-15T03:18:41;100740.53;;;9.79;93.51
72110;BME280;59983;52.010;5.420;2022-11-15T03:21:10;100740.19;;;9.80;93.62
72110;BME280;59983;52.010;5.420;2022-11-15T03:23:39;100745.59;;;9.80;93.96
72110;BME280;59983;52.010;5.420;2022-11-15T03:26:09;100744.81;;;9.80;94.37
72110;BME280;59983;52.010;5.420;2022-11-15T03:28:51;100746.06;;;9.82;94.21
72110;BME280;59983;52.010;5.420;2022-11-15T03:31:21;100737.59;;;9.84;94.66
72110;BME280;59983;52.010;5.420;2022-11-15T03:34:44;100748.09;;;9.85;94.78
72110;BME280;59983;52.010;5.420;2022-11-15T03:37:15;100747.72;;;9.87;95.08
72110;BME280;59983;52.010;5.420;2022-11-15T03:39:43;100748.16;;;9.89;95.48
72110;BME280;59983;52.010;5.420;2022-11-15T03:45:05;100749.53;;;9.95;95.98
72110;BME280;59983;52.010;5.420;2022-11-15T03:47:48;100748.03;;;9.98;96.31
72110;BME280;59983;52.010;5.420;2022-11-15T03:50:20;100740.38;;;10.00;96.63
72110;BME280;59983;52.010;5.420;2022-11-15T03:52:48;100750.53;;;10.03;96.43
72110;BME280;59983;52.010;5.420;2022-11-15T03:55:18;100742.84;;;10.05;96.46
72110;BME280;59983;52.010;5.420;2022-11-15T03:57:47;100738.19;;;10.05;96.86
72110;BME280;59983;52.010;5.420;2022-11-15T04:00:14;100741.03;;;10.09;96.72
72110;BME280;59983;52.010;5.420;2022-11-15T04:02:41;100735.16;;;10.07;96.91
72110;BME280;59983;52.010;5.420;2022-11-15T04:05:08;100754.66;;;10.12;97.15
72110;BME280;59983;52.010;5.420;2022-11-15T04:07:34;100743.47;;;10.14;97.10
72110;BME280;59983;52.010;5.420;2022-11-15T04:10:02;100749.25;;;10.12;97.48
72110;BME280;59983;52.010;5.420;2022-11-15T04:12:40;100746.66;;;10.16;97.11
72110;BME280;59983;52.010;5.420;2022-11-15T04:15:14;100735.13;;;10.19;97.41
72110;BME280;59983;52.010;5.420;2022-11-15T04:17:43;100734.09;;;10.24;97.14
72110;BME280;59983;52.010;5.420;2022-11-15T04:20:17;100723.25;;;10.24;97.13
72110;BME280;59983;52.010;5.420;2022-11-15T04:23:05;100724.16;;;10.28;97.17
72110;BME280;59983;52.010;5.420;2022-11-15T04:25:53;100726.53;;;10.29;97.36
72110;BME280;59983;52.010;5.420;2022-11-15T04:28:20;100732.03;;;10.33;97.24
72110;BME280;59983;52.010;5.420;2022-11-15T04:30:47;100721.53;;;10.31;97.24
72110;BME280;59983;52.010;5.420;2022-11-15T04:33:13;100726.59;;;10.33;97.01
72110;BME280;59983;52.010;5.420;2022-11-15T04:35:40;100726.72;;;10.36;97.21
72110;BME280;59983;52.010;5.420;2022-11-15T04:38:09;100725.94;;;10.36;96.90
72110;BME280;59983;52.010;5.420;2022-11-15T04:40:36;100727.16;;;10.38;96.91
72110;BME280;59983;52.010;5.420;2022-11-15T04:43:04;100732.66;;;10.42;97.38
72110;BME280;59983;52.010;5.420;2022-11-15T04:45:30;100724.53;;;10.42;96.92
72110;BME280;59983;52.010;5.420;2022-11-15T04:47:57;100723.41;;;10.43;97.15
72110;BME280;59983;52.010;5.420;2022-11-15T04:50:23;100726.13;;;10.43;97.21
72110;BME280;59983;52.010;5.420;2022-11-15T04:52:52;100725.00;;;10.44;97.33
72110;BME280;59983;52.010;5.420;2022-11-15T04:55:20;100723.06;;;10.44;97.14
72110;BME280;59983;52.010;5.420;2022-11-15T04:57:46;100730.84;;;10.46;96.99
72110;BME280;59983;52.010;5.420;2022-11-15T05:00:15;100723.50;;;10.46;97.23
72110;BME280;59983;52.010;5.420;2022-11-15T05:02:41;100721.22;;;10.48;97.05
72110;BME280;59983;52.010;5.420;2022-11-15T05:05:26;100723.59;;;10.50;97.19
72110;BME280;59983;52.010;5.420;2022-11-15T05:07:53;100734.13;;;10.52;97.15
72110;BME280;59983;52.010;5.420;2022-11-15T05:10:19;100728.00;;;10.55;97.17
72110;BME280;59983;52.010;5.420;2022-11-15T05:12:46;100722.22;;;10.56;97.00
72110;BME280;59983;52.010;5.420;2022-11-15T05:15:13;100726.50;;;10.57;97.12
72110;BME280;59983;52.010;5.420;2022-11-15T05:17:39;100723.78;;;10.57;97.29
72110;BME280;59983;52.010;5.420;2022-11-15T05:20:06;100735.06;;;10.59;97.25
72110;BME280;59983;52.010;5.420;2022-11-15T05:22:33;100730.44;;;10.60;97.27
72110;BME280;59983;52.010;5.420;2022-11-15T05:24:59;100737.47;;;10.61;97.09
72110;BME280;59983;52.010;5.420;2022-11-15T05:27:26;100733.59;;;10.62;97.22
72110;BME280;59983;52.010;5.420;2022-11-15T05:29:52;100739.47;;;10.64;97.63
72110;BME280;59983;52.010;5.420;2022-11-15T05:32:18;100736.75;;;10.64;97.62
72110;BME280;59983;52.010;5.420;2022-11-15T05:34:45;100733.34;;;10.67;97.49
72110;BME280;59983;52.010;5.420;2022-11-15T05:37:13;100738.75;;;10.67;97.56
72110;BME280;59983;52.010;5.420;2022-11-15T05:39:40;100738.09;;;10.70;97.45
72110;BME280;59983;52.010;5.420;2022-11-15T05:42:09;100732.31;;;10.71;97.67
72110;BME280;59983;52.010;5.420;2022-11-15T05:44:37;100740.53;;;10.75;97.39
72110;BME280;59983;52.010;5.420;2022-11-15T05:47:06;100739.03;;;10.77;97.49
72110;BME280;59983;52.010;5.420;2022-11-15T05:49:36;100741.75;;;10.77;97.53
72110;BME280;59983;52.010;5.420;2022-11-15T05:52:05;100733.16;;;10.75;97.66
72110;BME280;59983;52.010;5.420;2022-11-15T05:54:34;100741.75;;;10.77;97.74
72110;BME280;59983;52.010;5.420;2022-11-15T05:57:02;100742.56;;;10.78;97.96
72110;BME280;59983;52.010;5.420;2022-11-15T05:59:30;100743.34;;;10.78;97.84
72110;BME280;59983;52.010;5.420;2022-11-15T06:01:57;100746.06;;;10.78;97.84
72110;BME280;59983;52.010;5.420;2022-11-15T06:04:24;100743.00;;;10.80;98.04
72110;BME280;59983;52.010;5.420;2022-11-15T06:06:51;100748.84;;;10.82;98.04
72110;BME280;59983;52.010;5.420;2022-11-15T06:09:17;100745.78;;;10.84;98.05
72110;BME280;59983;52.010;5.420;2022-11-15T06:11:44;100747.00;;;10.86;98.21
72110;BME280;59983;52.010;5.420;2022-11-15T06:14:10;100749.72;;;10.86;97.80
72110;BME280;59983;52.010;5.420;2022-11-15T06:16:37;100742.72;;;10.85;97.92
72110;BME280;59983;52.010;5.420;2022-11-15T06:19:05;100747.47;;;10.88;98.22
72110;BME280;59983;52.010;5.420;2022-11-15T06:21:32;100747.47;;;10.88;98.40
72110;BME280;59983;52.010;5.420;2022-11-15T06:23:58;100756.47;;;10.92;98.29
72110;BME280;59983;52.010;5.420;2022-11-15T06:26:25;100754.53;;;10.93;98.36
72110;BME280;59983;52.010;5.420;2022-11-15T06:28:51;100744.84;;;10.92;98.11
72110;BME280;59983;52.010;5.420;2022-11-15T06:31:17;100753.06;;;10.95;98.35
72110;BME280;59983;52.010;5.420;2022-11-15T06:33:44;100746.50;;;10.96;98.51
72110;BME280;59983;52.010;5.420;2022-11-15T06:36:13;100755.44;;;10.97;98.21
72110;BME280;59983;52.010;5.420;2022-11-15T06:38:44;100756.22;;;10.97;97.90
72110;BME280;59983;52.010;5.420;2022-11-15T06:41:11;100759.81;;;11.01;98.08
72110;BME280;59983;52.010;5.420;2022-11-15T06:43:38;100769.88;;;11.01;98.04
72110;BME280;59983;52.010;5.420;2022-11-15T06:46:05;100768.31;;;11.00;98.12
72110;BME280;59983;52.010;5.420;2022-11-15T06:48:33;100776.88;;;11.02;97.67
72110;BME280;59983;52.010;5.420;2022-11-15T06:51:02;100778.44;;;11.03;98.01
72110;BME280;59983;52.010;5.420;2022-11-15T06:53:29;100777.66;;;11.02;97.70
72110;BME280;59983;52.010;5.420;2022-11-15T06:56:01;100780.84;;;11.04;97.83
72110;BME280;59983;52.010;5.420;2022-11-15T06:58:28;100781.28;;;11.06;97.97
72110;BME280;59983;52.010;5.420;2022-11-15T07:01:06;100783.56;;;11.04;98.03
72110;BME280;59983;52.010;5.420;2022-11-15T07:03:38;100788.63;;;11.06;98.00
72110;BME280;59983;52.010;5.420;2022-11-15T07:06:05;100787.13;;;11.09;98.07
72110;BME280;59983;52.010;5.420;2022-11-15T07:08:34;100780.13;;;11.07;97.64
72110;BME280;59983;52.010;5.420;2022-11-15T07:11:03;100785.56;;;11.07;97.68
72110;BME280;59983;52.010;5.420;2022-11-15T07:13:31;100789.06;;;11.08;97.55
72110;BME280;59983;52.010;5.420;2022-11-15T07:16:06;100785.13;;;11.05;97.57
72110;BME280;59983;52.010;5.420;2022-11-15T07:18:34;100794.50;;;11.08;97.96
72110;BME280;59983;52.010;5.420;2022-11-15T07:21:03;100792.91;;;11.07;98.09
72110;BME280;59983;52.010;5.420;2022-11-15T07:23:30;100797.19;;;11.08;97.84
72110;BME280;59983;52.010;5.420;2022-11-15T07:25:57;100799.91;;;11.08;97.81
72110;BME280;59983;52.010;5.420;2022-11-15T07:28:25;100800.72;;;11.09;97.76
72110;BME280;59983;52.010;5.420;2022-11-15T07:30:52;100794.13;;;11.10;97.68
72110;BME280;59983;52.010;5.420;2022-11-15T07:33:19;100800.00;;;11.12;97.47
72110;BME280;59983;52.010;5.420;2022-11-15T07:35:45;100796.16;;;11.13;97.68
72110;BME280;59983;52.010;5.420;2022-11-15T07:38:15;100805.53;;;11.15;97.64
72110;BME280;59983;52.010;5.420;2022-11-15T07:40:46;100796.25;;;11.16;97.30
72110;BME280;59983;52.010;5.420;2022-11-15T07:43:13;100802.03;;;11.15;97.38
72110;BME280;59983;52.010;5.420;2022-11-15T07:45:43;100790.38;;;11.14;97.02
72110;BME280;59983;52.010;5.420;2022-11-15T07:48:10;100802.09;;;11.18;96.98
72110;BME280;59983;52.010;5.420;2022-11-15T07:50:40;100787.41;;;11.19;96.83
72110;BME280;59983;52.010;5.420;2022-11-15T07:53:08;100786.59;;;11.19;96.75
72110;BME280;59983;52.010;5.420;2022-11-15T07:55:35;100780.03;;;11.20;96.90
72110;BME280;59983;52.010;5.420;2022-11-15T07:58:06;100773.47;;;11.21;96.37
72110;BME280;59983;52.010;5.420;2022-11-15T08:00:33;100769.28;;;11.23;96.48
72110;BME280;59983;52.010;5.420;2022-11-15T08:03:11;100776.66;;;11.23;96.23
72110;BME280;59983;52.010;5.420;2022-11-15T08:05:39;100780.56;;;11.25;95.88
72110;BME280;59983;52.010;5.420;2022-11-15T08:08:07;100774.78;;;11.27;95.84
72110;BME280;59983;52.010;5.420;2022-11-15T08:10:34;100773.28;;;11.29;95.69
72110;BME280;59983;52.010;5.420;2022-11-15T08:13:08;100785.03;;;11.33;95.65
72110;BME280;59983;52.010;5.420;2022-11-15T08:15:36;100778.91;;;11.37;95.85
72110;BME280;59983;52.010;5.420;2022-11-15T08:18:06;100774.69;;;11.39;95.76
72110;BME280;59983;52.010;5.420;2022-11-15T08:20:33;100775.50;;;11.40;95.71
72110;BME280;59983;52.010;5.420;2022-11-15T08:23:02;100769.72;;;11.41;95.65
72110;BME280;59983;52.010;5.420;2022-11-15T08:25:31;100781.78;;;11.44;95.63
72110;BME280;59983;52.010;5.420;2022-11-15T08:28:00;100770.66;;;11.49;95.35
72110;BME280;59983;52.010;5.420;2022-11-15T08:30:28;100779.31;;;11.54;95.20
72110;BME280;59983;52.010;5.420;2022-11-15T08:32:56;100780.53;;;11.57;95.38
72110;BME280;59983;52.010;5.420;2022-11-15T08:35:24;100779.84;;;11.60;95.05
72110;BME280;59983;52.010;5.420;2022-11-15T08:37:54;100772.06;;;11.58;94.83
72110;BME280;59983;52.010;5.420;2022-11-15T08:40:21;100773.63;;;11.59;94.81
72110;BME280;59983;52.010;5.420;2022-11-15T08:42:49;100771.69;;;11.60;94.89
72110;BME280;59983;52.010;5.420;2022-11-15T08:45:15;100770.13;;;11.59;94.78
72110;BME280;59983;52.010;5.420;2022-11-15T08:47:42;100751.19;;;11.62;95.00
72110;BME280;59983;52.010;5.420;2022-11-15T08:50:08;100755.09;;;11.65;94.88
72110;BME280;59983;52.010;5.420;2022-11-15T08:52:35;100760.22;;;11.67;94.70
72110;BME280;59983;52.010;5.420;2022-11-15T08:55:01;100756.00;;;11.69;94.75
72110;BME280;59983;52.010;5.420;2022-11-15T08:57:29;100757.19;;;11.72;94.75
72110;BME280;59983;52.010;5.420;2022-11-15T08:59:58;100760.03;;;11.75;94.22
72110;BME280;59983;52.010;5.420;2022-11-15T09:02:25;100752.28;;;11.77;94.33
72110;BME280;59983;52.010;5.420;2022-11-15T09:04:51;100756.78;;;11.85;94.25
72110;BME280;59983;52.010;5.420;2022-11-15T09:07:18;100761.50;;;11.88;94.10
72110;BME280;59983;52.010;5.420;2022-11-15T09:09:44;100750.19;;;11.86;93.82
72110;BME280;59983;52.010;5.420;2022-11-15T09:12:11;100751.69;;;11.84;93.71
72110;BME280;59983;52.010;5.420;2022-11-15T09:14:38;100759.50;;;11.85;93.82
72110;BME280;59983;52.010;5.420;2022-11-15T09:17:07;100748.69;;;11.89;93.61
72110;BME280;59983;52.010;5.420;2022-11-15T09:19:34;100753.75;;;11.90;93.53
72110;BME280;59983;52.010;5.420;2022-11-15T09:22:01;100747.53;;;11.90;93.19
72110;BME280;59983;52.010;5.420;2022-11-15T09:24:27;100745.19;;;11.88;92.93
72110;BME280;59983;52.010;5.420;2022-11-15T09:26:54;100744.13;;;11.93;92.56
72110;BME280;59983;52.010;5.420;2022-11-15T09:29:20;100735.09;;;11.89;92.24
72110;BME280;59983;52.010;5.420;2022-11-15T09:31:47;100743.25;;;11.89;91.89
72110;BME280;59983;52.010;5.420;2022-11-15T09:34:13;100740.53;;;11.89;91.77
72110;BME280;59983;52.010;5.420;2022-11-15T09:36:40;100737.03;;;11.88;91.34
72110;BME280;59983;52.010;5.420;2022-11-15T09:39:06;100737.44;;;11.90;91.11
72110;BME280;59983;52.010;5.420;2022-11-15T09:44:28;100726.22;;;11.92;89.36
72110;BME280;59983;52.010;5.420;2022-11-15T09:49:52;100720.88;;;11.96;89.27
72110;BME280;59983;52.010;5.420;2022-11-15T09:52:23;100714.66;;;11.95;89.43
72110;BME280;59983;52.010;5.420;2022-11-15T09:54:51;100723.59;;;11.96;88.32
72110;BME280;59983;52.010;5.420;2022-11-15T09:57:33;100720.88;;;11.96;88.09
72110;BME280;59983;52.010;5.420;2022-11-15T10:03:16;100726.72;;;11.98;87.41
72110;BME280;59983;52.010;5.420;2022-11-15T10:05:48;100722.09;;;11.98;86.98
72110;BME280;59983;52.010;5.420;2022-11-15T10:08:33;100720.31;;;12.06;86.85
72110;BME280;59983;52.010;5.420;2022-11-15T10:11:08;100711.50;;;12.12;86.99
72110;BME280;59983;52.010;5.420;2022-11-15T10:13:59;100707.69;;;12.17;86.66
72110;BME280;59983;52.010;5.420;2022-11-15T10:17:00;100711.44;;;12.28;86.18
72110;BME280;59983;52.010;5.420;2022-11-15T10:19:38;100711.44;;;12.28;85.17
72110;BME280;59983;52.010;5.420;2022-11-15T10:27:35;100693.38;;;12.39;83.82
72110;BME280;59983;52.010;5.420;2022-11-15T10:30:03;100685.22;;;12.39;83.97
72110;BME280;59983;52.010;5.420;2022-11-15T10:32:36;100686.38;;;12.38;83.64
72110;BME280;59983;52.010;5.420;2022-11-15T10:35:17;100690.56;;;12.36;84.01
72110;BME280;59983;52.010;5.420;2022-11-15T10:37:44;100685.91;;;12.36;83.82
72110;BME280;59983;52.010;5.420;2022-11-15T10:40:23;100686.72;;;12.37;83.90
72110;BME280;59983;52.010;5.420;2022-11-15T10:45:37;100674.25;;;12.36;84.08
72110;BME280;59983;52.010;5.420;2022-11-15T10:50:42;100659.53;;;12.37;83.08
72110;BME280;59983;52.010;5.420;2022-11-15T10:53:17;100655.34;;;12.43;82.77
72110;BME280;59983;52.010;5.420;2022-11-15T10:55:50;100651.44;;;12.40;82.88
72110;BME280;59983;52.010;5.420;2022-11-15T10:58:33;100644.88;;;12.45;82.37
72110;BME280;59983;52.010;5.420;2022-11-15T11:01:12;100647.38;;;12.54;82.28
72110;BME280;59983;52.010;5.420;2022-11-15T11:03:41;100642.25;;;12.48;81.98
72110;BME280;59983;52.010;5.420;2022-11-15T11:06:14;100629.00;;;12.47;81.84
72110;BME280;59983;52.010;5.420;2022-11-15T11:08:57;100639.16;;;12.50;81.57
72110;BME280;59983;52.010;5.420;2022-11-15T11:11:24;100633.06;;;12.57;81.09
72110;BME280;59983;52.010;5.420;2022-11-15T11:13:51;100645.13;;;12.59;80.49
72110;BME280;59983;52.010;5.420;2022-11-15T11:24:45;100631.59;;;12.63;80.35
72110;BME280;59983;52.010;5.420;2022-11-15T11:30:14;100633.41;;;12.55;79.52
72110;BME280;59983;52.010;5.420;2022-11-15T11:38:53;100621.75;;;12.55;78.69
72110;BME280;59983;52.010;5.420;2022-11-15T11:44:34;100600.16;;;12.65;77.84
72110;BME280;59983;52.010;5.420;2022-11-15T11:47:28;100606.13;;;12.74;77.50
72110;BME280;59983;52.010;5.420;2022-11-15T11:50:18;100601.47;;;12.75;76.65
72110;BME280;59983;52.010;5.420;2022-11-15T12:00:55;100570.09;;;13.11;74.98
72110;BME280;59983;52.010;5.420;2022-11-15T12:03:35;100567.84;;;13.17;74.96
72110;BME280;59983;52.010;5.420;2022-11-15T12:06:20;100569.44;;;13.18;74.17
72110;BME280;59983;52.010;5.420;2022-11-15T12:08:58;100564.69;;;13.15;73.91
72110;BME280;59983;52.010;5.420;2022-11-15T12:14:00;100564.25;;;13.09;73.05
72110;BME280;59983;52.010;5.420;2022-11-15T12:16:29;100558.75;;;13.05;72.97
72110;BME280;59983;52.010;5.420;2022-11-15T12:19:00;100555.22;;;13.05;72.91
72110;BME280;59983;52.010;5.420;2022-11-15T12:21:55;100546.69;;;13.07;72.65
72110;BME280;59983;52.010;5.420;2022-11-15T12:29:44;100525.41;;;13.16;72.50
72110;BME280;59983;52.010;5.420;2022-11-15T12:32:29;100519.69;;;13.21;72.10
72110;BME280;59983;52.010;5.420;2022-11-15T12:34:58;100511.50;;;13.21;72.08
72110;BME280;59983;52.010;5.420;2022-11-15T12:43:04;100503.88;;;13.33;73.25
72110;BME280;59983;52.010;5.420;2022-11-15T12:45:37;100497.22;;;13.31;72.78
72110;BME280;59983;52.010;5.420;2022-11-15T12:50:55;100487.22;;;13.39;72.51
72110;BME280;59983;52.010;5.420;2022-11-15T12:58:58;100468.63;;;13.48;71.57
72110;BME280;59983;52.010;5.420;2022-11-15T13:11:55;100441.66;;;13.36;72.76
72110;BME280;59983;52.010;5.420;2022-11-15T13:17:34;100453.28;;;13.32;71.65
72110;BME280;59983;52.010;5.420;2022-11-15T13:22:52;100446.94;;;13.21;71.97
72110;BME280;59983;52.010;5.420;2022-11-15T13:33:22;100425.38;;;13.09;73.74
72110;BME280;59983;52.010;5.420;2022-11-15T13:35:55;100425.31;;;13.05;73.47
72110;BME280;59983;52.010;5.420;2022-11-15T13:38:26;100425.59;;;12.97;73.29
72110;BME280;59983;52.010;5.420;2022-11-15T13:40:54;100417.41;;;12.93;73.58
72110;BME280;59983;52.010;5.420;2022-11-15T13:48:32;100398.34;;;12.93;72.86
72110;BME280;59983;52.010;5.420;2022-11-15T13:51:03;100404.19;;;12.95;73.64
72110;BME280;59983;52.010;5.420;2022-11-15T13:53:32;100387.84;;;12.92;73.67
72110;BME280;59983;52.010;5.420;2022-11-15T13:56:00;100395.94;;;12.88;73.79
72110;BME280;59983;52.010;5.420;2022-11-15T13:58:27;100389.69;;;12.84;73.45
72110;BME280;59983;52.010;5.420;2022-11-15T14:01:02;100383.88;;;12.86;73.95
72110;BME280;59983;52.010;5.420;2022-11-15T14:03:32;100381.53;;;12.84;73.67
72110;BME280;59983;52.010;5.420;2022-11-15T14:06:09;100374.84;;;12.78;73.85
72110;BME280;59983;52.010;5.420;2022-11-15T14:09:03;100368.56;;;12.74;74.00
72110;BME280;59983;52.010;5.420;2022-11-15T14:11:27;100368.56;;;12.74;73.71
72110;BME280;59983;52.010;5.420;2022-11-15T14:16:44;100367.41;;;12.75;74.30
72110;BME280;59983;52.010;5.420;2022-11-15T14:22:24;100349.44;;;12.67;73.76
72110;BME280;59983;52.010;5.420;2022-11-15T14:25:17;100335.00;;;12.63;73.85
72110;BME280;59983;52.010;5.420;2022-11-15T14:30:39;100333.94;;;12.71;73.60
72110;BME280;59983;52.010;5.420;2022-11-15T14:35:52;100323.00;;;12.67;73.60
72110;BME280;59983;52.010;5.420;2022-11-15T14:38:18;100324.19;;;12.70;73.39
72110;BME280;59983;52.010;5.420;2022-11-15T14:40:45;100326.13;;;12.66;73.39
72110;BME280;59983;52.010;5.420;2022-11-15T14:43:12;100316.75;;;12.63;73.93
72110;BME280;59983;52.010;5.420;2022-11-15T14:45:39;100319.03;;;12.61;73.21
72110;BME280;59983;52.010;5.420;2022-11-15T14:48:06;100317.44;;;12.57;nan
72110;BME280;59983;52.010;5.420;2022-11-15T14:50:33;100311.22;;;12.56;73.34
72110;BME280;59983;52.010;5.420;2022-11-15T14:53:00;100298.41;;;12.57;72.44
72110;BME280;59983;52.010;5.420;2022-11-15T14:55:32;100295.28;;;12.55;72.50
72110;BME280;59983;52.010;5.420;2022-11-15T14:58:02;100297.56;;;12.53;72.39
72110;BME280;59983;52.010;5.420;2022-11-15T15:00:32;100289.84;;;12.55;73.11
72110;BME280;59983;52.010;5.420;2022-11-15T15:03:01;100280.84;;;12.51;72.56
72110;BME280;59983;52.010;5.420;2022-11-15T15:05:34;100284.34;;;12.51;72.49
72110;BME280;59983;52.010;5.420;2022-11-15T15:08:01;100282.38;;;12.48;71.58
72110;BME280;59983;52.010;5.420;2022-11-15T15:10:32;100278.91;;;12.51;72.38
72110;BME280;59983;52.010;5.420;2022-11-15T15:13:18;100261.03;;;12.54;72.10
72110;BME280;59983;52.010;5.420;2022-11-15T15:15:47;100263.41;;;12.55;71.77
72110;BME280;59983;52.010;5.420;2022-11-15T15:18:13;100264.53;;;12.51;71.59
72110;BME280;59983;52.010;5.420;2022-11-15T15:20:43;100252.06;;;12.50;71.75
72110;BME280;59983;52.010;5.420;2022-11-15T15:23:19;100243.06;;;12.45;71.93
72110;BME280;59983;52.010;5.420;2022-11-15T15:25:47;100245.06;;;12.48;71.75
72110;BME280;59983;52.010;5.420;2022-11-15T15:28:15;100231.41;;;12.45;71.21